sensor_id;sensor_type;location;lat;lon;timestamp;pressure;altitude;pressure_sealevel;temperature
71897;BMP280;59767;51.344;12.362;2023-05-07T00:02:55;161343.13;;;10.50
71897;BMP280;59767;51.344;12.362;2023-05-07T00:05:59;161341.84;;;10.50
71897;BMP280;59767;51.344;12.362;2023-05-07T00:09:03;161340.53;;;10.49
71897;BMP280;59767;51.344;12.362;2023-05-07T00:12:08;161358.84;;;10.56
71897;BMP280;59767;51.344;12.362;2023-05-07T00:15:12;161334.00;;;10.47
71897;BMP280;59767;51.344;12.362;2023-05-07T00:18:16;161323.53;;;10.43
71897;BMP280;59767;51.344;12.362;2023-05-07T00:21:20;161328.78;;;10.45
71897;BMP280;59767;51.344;12.362;2023-05-07T00:24:25;161336.59;;;10.48
71897;BMP280;59767;51.344;12.362;2023-05-07T00:27:29;161365.41;;;10.59
71897;BMP280;59767;51.344;12.362;2023-05-07T00:30:33;161382.41;;;10.65
71897;BMP280;59767;51.344;12.362;2023-05-07T00:33:37;161347.06;;;10.52
71897;BMP280;59767;51.344;12.362;2023-05-07T00:36:41;161334.00;;;10.47
71897;BMP280;59767;51.344;12.362;2023-05-07T00:39:45;161328.78;;;10.45
71897;BMP280;59767;51.344;12.362;2023-05-07T00:42:49;161370.66;;;10.61
71897;BMP280;59767;51.344;12.362;2023-05-07T00:45:54;161357.53;;;10.56
71897;BMP280;59767;51.344;12.362;2023-05-07T00:48:59;161352.31;;;10.54
71897;BMP280;59767;51.344;12.362;2023-05-07T00:52:03;161364.06;;;10.58
71897;BMP280;59767;51.344;12.362;2023-05-07T00:55:07;161366.72;;;10.59
71897;BMP280;59767;51.344;12.362;2023-05-07T00:58:12;161357.53;;;10.56
71897;BMP280;59767;51.344;12.362;2023-05-07T01:01:16;161353.66;;;10.54
71897;BMP280;59767;51.344;12.362;2023-05-07T01:04:20;161394.19;;;10.70
71897;BMP280;59767;51.344;12.362;2023-05-07T01:07:25;161409.88;;;10.76
71897;BMP280;59767;51.344;12.362;2023-05-07T01:10:30;161386.34;;;10.67
71897;BMP280;59767;51.344;12.362;2023-05-07T01:13:35;161360.13;;;10.57
71897;BMP280;59767;51.344;12.362;2023-05-07T01:16:40;161336.59;;;10.48
71897;BMP280;59767;51.344;12.362;2023-05-07T01:19:45;161332.72;;;10.46
71897;BMP280;59767;51.344;12.362;2023-05-07T01:22:50;161331.38;;;10.46
71897;BMP280;59767;51.344;12.362;2023-05-07T01:25:54;161317.00;;;10.40
71897;BMP280;59767;51.344;12.362;2023-05-07T01:28:58;161351.00;;;10.53
71897;BMP280;59767;51.344;12.362;2023-05-07T01:32:03;161347.06;;;10.52
71897;BMP280;59767;51.344;12.362;2023-05-07T01:35:11;161368.00;;;10.60
71897;BMP280;59767;51.344;12.362;2023-05-07T01:38:16;161368.00;;;10.60
71897;BMP280;59767;51.344;12.362;2023-05-07T01:41:21;161379.78;;;10.64
71897;BMP280;59767;51.344;12.362;2023-05-07T01:44:25;161369.31;;;10.60
71897;BMP280;59767;51.344;12.362;2023-05-07T01:47:29;161373.25;;;10.62
71897;BMP280;59767;51.344;12.362;2023-05-07T01:50:34;161358.84;;;10.56
71897;BMP280;59767;51.344;12.362;2023-05-07T01:53:39;161345.78;;;10.51
71897;BMP280;59767;51.344;12.362;2023-05-07T01:56:44;161324.84;;;10.43
71897;BMP280;59767;51.344;12.362;2023-05-07T01:59:48;161347.06;;;10.52
71897;BMP280;59767;51.344;12.362;2023-05-07T02:02:53;161354.97;;;10.55
71897;BMP280;59767;51.344;12.362;2023-05-07T02:05:57;161302.59;;;10.35
71897;BMP280;59767;51.344;12.362;2023-05-07T02:09:01;161302.59;;;10.35
71897;BMP280;59767;51.344;12.362;2023-05-07T02:12:05;161297.34;;;10.33
71897;BMP280;59767;51.344;12.362;2023-05-07T02:15:10;161273.81;;;10.24
71897;BMP280;59767;51.344;12.362;2023-05-07T02:18:15;161262.06;;;10.19
71897;BMP280;59767;51.344;12.362;2023-05-07T02:21:19;161264.66;;;10.20
71897;BMP280;59767;51.344;12.362;2023-05-07T02:24:23;161277.72;;;10.25
71897;BMP280;59767;51.344;12.362;2023-05-07T02:27:27;161254.19;;;10.16
71897;BMP280;59767;51.344;12.362;2023-05-07T02:30:32;161277.72;;;10.25
71897;BMP280;59767;51.344;12.362;2023-05-07T02:33:36;161255.47;;;10.17
71897;BMP280;59767;51.344;12.362;2023-05-07T02:36:40;161273.81;;;10.24
71897;BMP280;59767;51.344;12.362;2023-05-07T02:39:44;161269.88;;;10.22
71897;BMP280;59767;51.344;12.362;2023-05-07T02:42:48;161296.06;;;10.32
71897;BMP280;59767;51.344;12.362;2023-05-07T02:46:06;161281.66;;;10.27
71897;BMP280;59767;51.344;12.362;2023-05-07T02:49:10;161294.72;;;10.32
71897;BMP280;59767;51.344;12.362;2023-05-07T02:52:14;161302.59;;;10.35
71897;BMP280;59767;51.344;12.362;2023-05-07T02:55:19;161289.53;;;10.30
71897;BMP280;59767;51.344;12.362;2023-05-07T02:58:23;161284.31;;;10.28
71897;BMP280;59767;51.344;12.362;2023-05-07T03:01:27;161269.88;;;10.22
71897;BMP280;59767;51.344;12.362;2023-05-07T03:04:31;161252.88;;;10.16
71897;BMP280;59767;51.344;12.362;2023-05-07T03:07:36;161255.47;;;10.17
71897;BMP280;59767;51.344;12.362;2023-05-07T03:10:40;161276.41;;;10.25
71897;BMP280;59767;51.344;12.362;2023-05-07T03:13:44;161284.31;;;10.28
71897;BMP280;59767;51.344;12.362;2023-05-07T03:16:49;161315.66;;;10.40
71897;BMP280;59767;51.344;12.362;2023-05-07T03:19:53;161315.66;;;10.40
71897;BMP280;59767;51.344;12.362;2023-05-07T03:22:57;161307.84;;;10.37
71897;BMP280;59767;51.344;12.362;2023-05-07T03:26:02;161320.91;;;10.42
71897;BMP280;59767;51.344;12.362;2023-05-07T03:29:06;161318.25;;;10.41
71897;BMP280;59767;51.344;12.362;2023-05-07T03:32:10;161328.78;;;10.45
71897;BMP280;59767;51.344;12.362;2023-05-07T03:35:14;161313.06;;;10.39
71897;BMP280;59767;51.344;12.362;2023-05-07T03:38:18;161303.94;;;10.35
71897;BMP280;59767;51.344;12.362;2023-05-07T03:41:22;161323.53;;;10.43
71897;BMP280;59767;51.344;12.362;2023-05-07T03:44:26;161289.53;;;10.30
71897;BMP280;59767;51.344;12.362;2023-05-07T03:47:30;161290.84;;;10.30
71897;BMP280;59767;51.344;12.362;2023-05-07T03:50:34;161284.31;;;10.28
71897;BMP280;59767;51.344;12.362;2023-05-07T03:53:39;161318.25;;;10.41
71897;BMP280;59767;51.344;12.362;2023-05-07T03:56:43;161322.19;;;10.42
71897;BMP280;59767;51.344;12.362;2023-05-07T03:59:47;161296.06;;;10.32
71897;BMP280;59767;51.344;12.362;2023-05-07T04:02:51;161307.84;;;10.37
71897;BMP280;59767;51.344;12.362;2023-05-07T04:05:56;161279.06;;;10.26
71897;BMP280;59767;51.344;12.362;2023-05-07T04:09:00;161250.28;;;10.15
71897;BMP280;59767;51.344;12.362;2023-05-07T04:12:04;161235.88;;;10.09
71897;BMP280;59767;51.344;12.362;2023-05-07T04:15:09;161235.88;;;10.09
71897;BMP280;59767;51.344;12.362;2023-05-07T04:18:13;161256.81;;;10.17
71897;BMP280;59767;51.344;12.362;2023-05-07T04:21:19;161260.75;;;10.19
71897;BMP280;59767;51.344;12.362;2023-05-07T04:24:23;161284.31;;;10.28
71897;BMP280;59767;51.344;12.362;2023-05-07T04:27:28;161292.13;;;10.31
71897;BMP280;59767;51.344;12.362;2023-05-07T04:30:31;161297.34;;;10.33
71897;BMP280;59767;51.344;12.362;2023-05-07T04:33:35;161305.25;;;10.36
71897;BMP280;59767;51.344;12.362;2023-05-07T04:36:40;161313.06;;;10.39
71897;BMP280;59767;51.344;12.362;2023-05-07T04:39:44;161319.59;;;10.41
71897;BMP280;59767;51.344;12.362;2023-05-07T04:42:47;161323.53;;;10.43
71897;BMP280;59767;51.344;12.362;2023-05-07T04:45:51;161331.38;;;10.46
71897;BMP280;59767;51.344;12.362;2023-05-07T04:48:56;161305.25;;;10.36
71897;BMP280;59767;51.344;12.362;2023-05-07T04:52:00;161283.00;;;10.27
71897;BMP280;59767;51.344;12.362;2023-05-07T04:55:05;161315.66;;;10.40
71897;BMP280;59767;51.344;12.362;2023-05-07T04:58:09;161292.13;;;10.31
71897;BMP280;59767;51.344;12.362;2023-05-07T05:01:13;161302.59;;;10.35
71897;BMP280;59767;51.344;12.362;2023-05-07T05:04:19;161324.84;;;10.43
71897;BMP280;59767;51.344;12.362;2023-05-07T05:07:23;161335.28;;;10.47
71897;BMP280;59767;51.344;12.362;2023-05-07T05:10:28;161344.47;;;10.51
71897;BMP280;59767;51.344;12.362;2023-05-07T05:13:32;161320.91;;;10.42
71897;BMP280;59767;51.344;12.362;2023-05-07T05:16:36;161324.84;;;10.43
71897;BMP280;59767;51.344;12.362;2023-05-07T05:19:41;161310.47;;;10.38
71897;BMP280;59767;51.344;12.362;2023-05-07T05:22:45;161348.41;;;10.52
71897;BMP280;59767;51.344;12.362;2023-05-07T05:25:50;161334.00;;;10.47
71897;BMP280;59767;51.344;12.362;2023-05-07T05:28:54;161322.19;;;10.42
71897;BMP280;59767;51.344;12.362;2023-05-07T05:31:58;161326.13;;;10.44
71897;BMP280;59767;51.344;12.362;2023-05-07T05:35:02;161334.00;;;10.47
71897;BMP280;59767;51.344;12.362;2023-05-07T05:38:07;161305.25;;;10.36
71897;BMP280;59767;51.344;12.362;2023-05-07T05:41:11;161269.88;;;10.22
71897;BMP280;59767;51.344;12.362;2023-05-07T05:44:14;161297.34;;;10.33
71897;BMP280;59767;51.344;12.362;2023-05-07T05:47:18;161315.66;;;10.40
71897;BMP280;59767;51.344;12.362;2023-05-07T05:50:23;161320.91;;;10.42
71897;BMP280;59767;51.344;12.362;2023-05-07T05:53:27;161279.06;;;10.26
71897;BMP280;59767;51.344;12.362;2023-05-07T05:56:30;161326.13;;;10.44
71897;BMP280;59767;51.344;12.362;2023-05-07T05:59:35;161339.19;;;10.49
71897;BMP280;59767;51.344;12.362;2023-05-07T06:02:39;161292.13;;;10.31
71897;BMP280;59767;51.344;12.362;2023-05-07T06:05:43;161331.38;;;10.46
71897;BMP280;59767;51.344;12.362;2023-05-07T06:08:48;161340.53;;;10.49
71897;BMP280;59767;51.344;12.362;2023-05-07T06:11:52;161364.06;;;10.58
71897;BMP280;59767;51.344;12.362;2023-05-07T06:14:56;161357.53;;;10.56
71897;BMP280;59767;51.344;12.362;2023-05-07T06:18:00;161370.66;;;10.61
71897;BMP280;59767;51.344;12.362;2023-05-07T06:21:04;161412.53;;;10.77
71897;BMP280;59767;51.344;12.362;2023-05-07T06:24:08;161422.94;;;10.81
71897;BMP280;59767;51.344;12.362;2023-05-07T06:27:12;161451.75;;;10.92
71897;BMP280;59767;51.344;12.362;2023-05-07T06:30:17;161467.44;;;10.98
71897;BMP280;59767;51.344;12.362;2023-05-07T06:33:21;161446.50;;;10.90
71897;BMP280;59767;51.344;12.362;2023-05-07T06:36:25;161466.16;;;10.97
71897;BMP280;59767;51.344;12.362;2023-05-07T06:39:30;161453.06;;;10.92
71897;BMP280;59767;51.344;12.362;2023-05-07T06:42:35;161475.34;;;11.01
71897;BMP280;59767;51.344;12.362;2023-05-07T06:45:39;161455.69;;;10.93
71897;BMP280;59767;51.344;12.362;2023-05-07T06:48:44;161443.88;;;10.89
71897;BMP280;59767;51.344;12.362;2023-05-07T06:51:48;161504.09;;;11.12
71897;BMP280;59767;51.344;12.362;2023-05-07T06:54:52;161522.38;;;11.19
71897;BMP280;59767;51.344;12.362;2023-05-07T06:57:56;161477.91;;;11.02
71897;BMP280;59767;51.344;12.362;2023-05-07T07:01:04;161454.41;;;10.93
71897;BMP280;59767;51.344;12.362;2023-05-07T07:04:08;161446.50;;;10.90
71897;BMP280;59767;51.344;12.362;2023-05-07T07:07:12;161491.03;;;11.07
71897;BMP280;59767;51.344;12.362;2023-05-07T07:10:16;161474.00;;;11.00
71897;BMP280;59767;51.344;12.362;2023-05-07T07:13:20;161474.00;;;11.00
71897;BMP280;59767;51.344;12.362;2023-05-07T07:16:24;161449.16;;;10.91
71897;BMP280;59767;51.344;12.362;2023-05-07T07:19:29;161477.91;;;11.02
71897;BMP280;59767;51.344;12.362;2023-05-07T07:22:33;161481.84;;;11.03
71897;BMP280;59767;51.344;12.362;2023-05-07T07:25:37;161491.03;;;11.07
71897;BMP280;59767;51.344;12.362;2023-05-07T07:28:46;161500.16;;;11.10
71897;BMP280;59767;51.344;12.362;2023-05-07T07:31:50;161572.16;;;11.38
71897;BMP280;59767;51.344;12.362;2023-05-07T07:34:54;161591.75;;;11.45
71897;BMP280;59767;51.344;12.362;2023-05-07T07:37:58;161600.91;;;11.49
71897;BMP280;59767;51.344;12.362;2023-05-07T07:41:03;161593.09;;;11.46
71897;BMP280;59767;51.344;12.362;2023-05-07T07:44:07;161551.19;;;11.30
71897;BMP280;59767;51.344;12.362;2023-05-07T07:47:12;161518.47;;;11.17
71897;BMP280;59767;51.344;12.362;2023-05-07T07:50:16;161525.03;;;11.20
71897;BMP280;59767;51.344;12.362;2023-05-07T07:53:40;161527.66;;;11.21
71897;BMP280;59767;51.344;12.362;2023-05-07T07:56:45;161545.94;;;11.28
71897;BMP280;59767;51.344;12.362;2023-05-07T07:59:49;161590.47;;;11.45
71897;BMP280;59767;51.344;12.362;2023-05-07T08:02:54;161593.09;;;11.46
71897;BMP280;59767;51.344;12.362;2023-05-07T08:05:58;161604.84;;;11.50
71897;BMP280;59767;51.344;12.362;2023-05-07T08:09:02;161619.25;;;11.56
71897;BMP280;59767;51.344;12.362;2023-05-07T08:12:06;161595.66;;;11.47
71897;BMP280;59767;51.344;12.362;2023-05-07T08:15:10;161606.16;;;11.51
71897;BMP280;59767;51.344;12.362;2023-05-07T08:18:14;161608.78;;;11.52
71897;BMP280;59767;51.344;12.362;2023-05-07T08:21:18;161574.81;;;11.39
71897;BMP280;59767;51.344;12.362;2023-05-07T08:24:22;161600.91;;;11.49
71897;BMP280;59767;51.344;12.362;2023-05-07T08:27:26;161631.06;;;11.60
71897;BMP280;59767;51.344;12.362;2023-05-07T08:30:31;161598.31;;;11.48
71897;BMP280;59767;51.344;12.362;2023-05-07T08:33:35;161557.75;;;11.32
71897;BMP280;59767;51.344;12.362;2023-05-07T08:36:39;161585.22;;;11.43
71897;BMP280;59767;51.344;12.362;2023-05-07T08:39:45;161621.84;;;11.57
71897;BMP280;59767;51.344;12.362;2023-05-07T08:42:51;161627.13;;;11.59
71897;BMP280;59767;51.344;12.362;2023-05-07T08:45:57;161637.56;;;11.63
71897;BMP280;59767;51.344;12.362;2023-05-07T08:49:03;161587.84;;;11.44
71897;BMP280;59767;51.344;12.362;2023-05-07T08:52:08;161594.38;;;11.46
71897;BMP280;59767;51.344;12.362;2023-05-07T08:55:14;161604.84;;;11.50
71897;BMP280;59767;51.344;12.362;2023-05-07T08:58:19;161629.72;;;11.60
71897;BMP280;59767;51.344;12.362;2023-05-07T09:01:23;161598.31;;;11.48
71897;BMP280;59767;51.344;12.362;2023-05-07T09:04:27;161598.31;;;11.48
71897;BMP280;59767;51.344;12.362;2023-05-07T09:07:31;161600.91;;;11.49
71897;BMP280;59767;51.344;12.362;2023-05-07T09:10:36;161614.03;;;11.54
71897;BMP280;59767;51.344;12.362;2023-05-07T09:13:40;161615.31;;;11.54
71897;BMP280;59767;51.344;12.362;2023-05-07T09:16:46;161638.88;;;11.63
71897;BMP280;59767;51.344;12.362;2023-05-07T09:19:50;161680.78;;;11.79
71897;BMP280;59767;51.344;12.362;2023-05-07T09:22:55;161675.50;;;11.77
71897;BMP280;59767;51.344;12.362;2023-05-07T09:26:00;161654.56;;;11.69
71897;BMP280;59767;51.344;12.362;2023-05-07T09:29:04;161637.56;;;11.63
71897;BMP280;59767;51.344;12.362;2023-05-07T09:32:09;161659.81;;;11.71
71897;BMP280;59767;51.344;12.362;2023-05-07T09:35:17;161705.66;;;11.89
71897;BMP280;59767;51.344;12.362;2023-05-07T09:38:21;161669.03;;;11.75
71897;BMP280;59767;51.344;12.362;2023-05-07T09:41:26;161641.47;;;11.64
71897;BMP280;59767;51.344;12.362;2023-05-07T09:44:32;161659.81;;;11.71
71897;BMP280;59767;51.344;12.362;2023-05-07T09:47:37;161655.88;;;11.70
71897;BMP280;59767;51.344;12.362;2023-05-07T09:50:51;161586.56;;;11.43
71897;BMP280;59767;51.344;12.362;2023-05-07T09:53:58;161638.88;;;11.63
71897;BMP280;59767;51.344;12.362;2023-05-07T09:57:07;161665.09;;;11.73
71897;BMP280;59767;51.344;12.362;2023-05-07T10:00:14;161689.94;;;11.83
71897;BMP280;59767;51.344;12.362;2023-05-07T10:03:19;161645.41;;;11.66
71897;BMP280;59767;51.344;12.362;2023-05-07T10:06:24;161615.31;;;11.54
71897;BMP280;59767;51.344;12.362;2023-05-07T10:09:29;161692.53;;;11.84
71897;BMP280;59767;51.344;12.362;2023-05-07T10:12:35;161771.09;;;12.14
71897;BMP280;59767;51.344;12.362;2023-05-07T10:15:43;161756.72;;;12.08
71897;BMP280;59767;51.344;12.362;2023-05-07T10:18:49;161763.22;;;12.11
71897;BMP280;59767;51.344;12.362;2023-05-07T10:21:55;161776.34;;;12.16
71897;BMP280;59767;51.344;12.362;2023-05-07T10:25:02;161752.78;;;12.07
71897;BMP280;59767;51.344;12.362;2023-05-07T10:28:10;161789.44;;;12.21
71897;BMP280;59767;51.344;12.362;2023-05-07T10:34:36;161794.69;;;12.23
71897;BMP280;59767;51.344;12.362;2023-05-07T10:37:41;161839.19;;;12.40
71897;BMP280;59767;51.344;12.362;2023-05-07T10:40:46;161789.44;;;12.21
71897;BMP280;59767;51.344;12.362;2023-05-07T10:43:52;161878.44;;;12.55
71897;BMP280;59767;51.344;12.362;2023-05-07T10:59:30;161820.81;;;12.33
71897;BMP280;59767;51.344;12.362;2023-05-07T11:06:15;161739.69;;;12.02
71897;BMP280;59767;51.344;12.362;2023-05-07T11:09:20;161861.41;;;12.48
71897;BMP280;59767;51.344;12.362;2023-05-07T11:15:46;161767.16;;;12.12
71897;BMP280;59767;51.344;12.362;2023-05-07T11:18:52;161773.75;;;12.15
71897;BMP280;59767;51.344;12.362;2023-05-07T11:21:56;161822.16;;;12.33
71897;BMP280;59767;51.344;12.362;2023-05-07T11:25:01;161868.03;;;12.51
71897;BMP280;59767;51.344;12.362;2023-05-07T11:28:07;161908.56;;;12.66
71897;BMP280;59767;51.344;12.362;2023-05-07T11:31:13;161987.16;;;12.96
71897;BMP280;59767;51.344;12.362;2023-05-07T11:34:25;161941.28;;;12.79
71897;BMP280;59767;51.344;12.362;2023-05-07T11:37:46;161949.16;;;12.82
71897;BMP280;59767;51.344;12.362;2023-05-07T11:40:52;161947.88;;;12.81
71897;BMP280;59767;51.344;12.362;2023-05-07T11:43:58;161966.19;;;12.88
71897;BMP280;59767;51.344;12.362;2023-05-07T11:47:03;162004.19;;;13.03
71897;BMP280;59767;51.344;12.362;2023-05-07T11:50:07;162029.06;;;13.12
71897;BMP280;59767;51.344;12.362;2023-05-07T11:53:12;161953.09;;;12.83
71897;BMP280;59767;51.344;12.362;2023-05-07T11:56:18;162005.53;;;13.03
71897;BMP280;59767;51.344;12.362;2023-05-07T11:59:22;161943.94;;;12.80
71897;BMP280;59767;51.344;12.362;2023-05-07T12:02:26;161896.81;;;12.62
71897;BMP280;59767;51.344;12.362;2023-05-07T12:05:32;161951.84;;;12.83
71897;BMP280;59767;51.344;12.362;2023-05-07T12:08:37;161992.38;;;12.98
71897;BMP280;59767;51.344;12.362;2023-05-07T12:11:45;162078.84;;;13.31
71897;BMP280;59767;51.344;12.362;2023-05-07T12:14:49;162071.00;;;13.28
71897;BMP280;59767;51.344;12.362;2023-05-07T12:17:54;161937.41;;;12.77
71897;BMP280;59767;51.344;12.362;2023-05-07T12:20:58;161991.09;;;12.98
71897;BMP280;59767;51.344;12.362;2023-05-07T12:24:03;162053.97;;;13.22
71897;BMP280;59767;51.344;12.362;2023-05-07T12:27:07;162080.16;;;13.32
71897;BMP280;59767;51.344;12.362;2023-05-07T12:30:11;162200.72;;;13.78
71897;BMP280;59767;51.344;12.362;2023-05-07T12:33:24;162232.13;;;13.90
71897;BMP280;59767;51.344;12.362;2023-05-07T12:36:36;162146.97;;;13.57
71897;BMP280;59767;51.344;12.362;2023-05-07T12:39:47;162132.53;;;13.52
71897;BMP280;59767;51.344;12.362;2023-05-07T12:42:54;162099.81;;;13.39
71897;BMP280;59767;51.344;12.362;2023-05-07T12:46:05;162074.94;;;13.30
71897;BMP280;59767;51.344;12.362;2023-05-07T12:49:10;162052.63;;;13.21
71897;BMP280;59767;51.344;12.362;2023-05-07T12:52:14;162146.97;;;13.57
71897;BMP280;59767;51.344;12.362;2023-05-07T12:55:19;162182.34;;;13.71
71897;BMP280;59767;51.344;12.362;2023-05-07T12:58:26;162211.16;;;13.82
71897;BMP280;59767;51.344;12.362;2023-05-07T13:01:33;162212.47;;;13.82
71897;BMP280;59767;51.344;12.362;2023-05-07T13:04:38;162245.22;;;13.95
71897;BMP280;59767;51.344;12.362;2023-05-07T13:07:52;162195.44;;;13.76
71897;BMP280;59767;51.344;12.362;2023-05-07T13:11:01;162152.19;;;13.59
71897;BMP280;59767;51.344;12.362;2023-05-07T13:14:08;162208.53;;;13.81
71897;BMP280;59767;51.344;12.362;2023-05-07T13:17:12;162196.75;;;13.76
71897;BMP280;59767;51.344;12.362;2023-05-07T13:20:17;162192.81;;;13.75
71897;BMP280;59767;51.344;12.362;2023-05-07T13:23:21;162203.31;;;13.79
71897;BMP280;59767;51.344;12.362;2023-05-07T13:26:26;162241.28;;;13.93
71897;BMP280;59767;51.344;12.362;2023-05-07T13:29:30;162263.59;;;14.02
71897;BMP280;59767;51.344;12.362;2023-05-07T13:32:34;162268.78;;;14.04
71897;BMP280;59767;51.344;12.362;2023-05-07T13:35:39;162284.53;;;14.10
71897;BMP280;59767;51.344;12.362;2023-05-07T13:38:43;162281.94;;;14.09
71897;BMP280;59767;51.344;12.362;2023-05-07T13:41:47;162287.16;;;14.11
71897;BMP280;59767;51.344;12.362;2023-05-07T13:44:52;162239.97;;;13.93
71897;BMP280;59767;51.344;12.362;2023-05-07T13:47:57;162243.91;;;13.94
71897;BMP280;59767;51.344;12.362;2023-05-07T13:51:01;162225.56;;;13.87
71897;BMP280;59767;51.344;12.362;2023-05-07T13:54:05;162253.06;;;13.98
71897;BMP280;59767;51.344;12.362;2023-05-07T13:57:09;162292.41;;;14.13
71897;BMP280;59767;51.344;12.362;2023-05-07T14:00:14;162292.41;;;14.13
71897;BMP280;59767;51.344;12.362;2023-05-07T14:03:18;162272.72;;;14.05
71897;BMP280;59767;51.344;12.362;2023-05-07T14:06:24;162253.06;;;13.98
71897;BMP280;59767;51.344;12.362;2023-05-07T14:09:28;162281.94;;;14.09
71897;BMP280;59767;51.344;12.362;2023-05-07T14:12:32;162297.66;;;14.15
71897;BMP280;59767;51.344;12.362;2023-05-07T14:15:37;162302.84;;;14.17
71897;BMP280;59767;51.344;12.362;2023-05-07T14:18:41;162329.13;;;14.27
71897;BMP280;59767;51.344;12.362;2023-05-07T14:21:45;162272.72;;;14.05
71897;BMP280;59767;51.344;12.362;2023-05-07T14:24:50;162274.03;;;14.06
71897;BMP280;59767;51.344;12.362;2023-05-07T14:28:09;162234.78;;;13.91
71897;BMP280;59767;51.344;12.362;2023-05-07T14:31:13;162268.78;;;14.04
71897;BMP280;59767;51.344;12.362;2023-05-07T14:34:17;162274.03;;;14.06
71897;BMP280;59767;51.344;12.362;2023-05-07T14:37:23;162302.84;;;14.17
71897;BMP280;59767;51.344;12.362;2023-05-07T14:40:28;162285.81;;;14.10
71897;BMP280;59767;51.344;12.362;2023-05-07T14:43:31;162280.66;;;14.08
71897;BMP280;59767;51.344;12.362;2023-05-07T14:46:36;162288.47;;;14.11
71897;BMP280;59767;51.344;12.362;2023-05-07T14:49:40;162326.47;;;14.26
71897;BMP280;59767;51.344;12.362;2023-05-07T14:52:47;162267.53;;;14.03
71897;BMP280;59767;51.344;12.362;2023-05-07T14:55:51;162298.97;;;14.15
71897;BMP280;59767;51.344;12.362;2023-05-07T14:58:55;162304.19;;;14.17
71897;BMP280;59767;51.344;12.362;2023-05-07T15:01:59;162315.97;;;14.22
71897;BMP280;59767;51.344;12.362;2023-05-07T15:05:06;162352.66;;;14.36
71897;BMP280;59767;51.344;12.362;2023-05-07T15:08:11;162335.63;;;14.29
71897;BMP280;59767;51.344;12.362;2023-05-07T15:11:15;162276.66;;;14.07
71897;BMP280;59767;51.344;12.362;2023-05-07T15:14:19;162233.47;;;13.90
71897;BMP280;59767;51.344;12.362;2023-05-07T15:17:25;162276.66;;;14.07
71897;BMP280;59767;51.344;12.362;2023-05-07T15:20:29;162323.84;;;14.25
71897;BMP280;59767;51.344;12.362;2023-05-07T15:23:33;162289.75;;;14.12
71897;BMP280;59767;51.344;12.362;2023-05-07T15:26:38;162296.38;;;14.14
71897;BMP280;59767;51.344;12.362;2023-05-07T15:29:42;162283.25;;;14.09
71897;BMP280;59767;51.344;12.362;2023-05-07T15:32:46;162233.47;;;13.90
71897;BMP280;59767;51.344;12.362;2023-05-07T15:35:51;162234.78;;;13.91
71897;BMP280;59767;51.344;12.362;2023-05-07T15:38:55;162239.97;;;13.93
71897;BMP280;59767;51.344;12.362;2023-05-07T15:42:00;162293.69;;;14.13
71897;BMP280;59767;51.344;12.362;2023-05-07T15:45:05;162279.31;;;14.08
71897;BMP280;59767;51.344;12.362;2023-05-07T15:48:09;162260.94;;;14.01
71897;BMP280;59767;51.344;12.362;2023-05-07T15:51:14;162263.59;;;14.02
71897;BMP280;59767;51.344;12.362;2023-05-07T15:54:18;162276.66;;;14.07
71897;BMP280;59767;51.344;12.362;2023-05-07T15:57:24;162300.25;;;14.16
71897;BMP280;59767;51.344;12.362;2023-05-07T16:00:28;162300.25;;;14.16
71897;BMP280;59767;51.344;12.362;2023-05-07T16:03:32;162207.19;;;13.80
71897;BMP280;59767;51.344;12.362;2023-05-07T16:06:36;162188.94;;;13.73
71897;BMP280;59767;51.344;12.362;2023-05-07T16:09:40;162177.06;;;13.69
71897;BMP280;59767;51.344;12.362;2023-05-07T16:12:45;162127.28;;;13.50
71897;BMP280;59767;51.344;12.362;2023-05-07T16:15:49;162103.75;;;13.41
71897;BMP280;59767;51.344;12.362;2023-05-07T16:18:53;162060.50;;;13.24
71897;BMP280;59767;51.344;12.362;2023-05-07T16:21:57;162052.63;;;13.21
71897;BMP280;59767;51.344;12.362;2023-05-07T16:25:01;162025.13;;;13.11
71897;BMP280;59767;51.344;12.362;2023-05-07T16:28:06;162012.03;;;13.06
71897;BMP280;59767;51.344;12.362;2023-05-07T16:31:10;161988.50;;;12.97
71897;BMP280;59767;51.344;12.362;2023-05-07T16:34:14;162002.88;;;13.02
71897;BMP280;59767;51.344;12.362;2023-05-07T16:37:19;161992.38;;;12.98
71897;BMP280;59767;51.344;12.362;2023-05-07T16:40:24;161977.97;;;12.93
71897;BMP280;59767;51.344;12.362;2023-05-07T16:43:29;161950.50;;;12.82
71897;BMP280;59767;51.344;12.362;2023-05-07T16:46:33;161964.91;;;12.88
71897;BMP280;59767;51.344;12.362;2023-05-07T16:49:37;161958.31;;;12.85
71897;BMP280;59767;51.344;12.362;2023-05-07T16:52:41;162001.59;;;13.02
71897;BMP280;59767;51.344;12.362;2023-05-07T16:55:48;161972.78;;;12.91
71897;BMP280;59767;51.344;12.362;2023-05-07T16:58:54;161970.13;;;12.90
71897;BMP280;59767;51.344;12.362;2023-05-07T17:01:58;161984.56;;;12.95
71897;BMP280;59767;51.344;12.362;2023-05-07T17:05:03;161963.59;;;12.87
71897;BMP280;59767;51.344;12.362;2023-05-07T17:08:09;161962.25;;;12.87
71897;BMP280;59767;51.344;12.362;2023-05-07T17:11:13;161932.13;;;12.75
71897;BMP280;59767;51.344;12.362;2023-05-07T17:14:20;161878.44;;;12.55
71897;BMP280;59767;51.344;12.362;2023-05-07T17:17:24;161874.50;;;12.53
71897;BMP280;59767;51.344;12.362;2023-05-07T17:20:28;161862.75;;;12.49
71897;BMP280;59767;51.344;12.362;2023-05-07T17:23:32;161866.69;;;12.50
71897;BMP280;59767;51.344;12.362;2023-05-07T17:26:36;161847.06;;;12.43
71897;BMP280;59767;51.344;12.362;2023-05-07T17:29:41;161862.75;;;12.49
71897;BMP280;59767;51.344;12.362;2023-05-07T17:32:45;161857.50;;;12.47
71897;BMP280;59767;51.344;12.362;2023-05-07T17:35:51;161836.53;;;12.39
71897;BMP280;59767;51.344;12.362;2023-05-07T17:38:56;161807.75;;;12.28